RK8S weather

N 303 Helipad
Yokjido Island, Gyeongsangnamdo, South Korea

Public forecast

Using degrees Celsius for public forecast. Weather courtesy of forecast.io.

METAR (pilot weather report)

Report is more than 6 hours old.

Closest report is Sacheon Air Base/Airport, 28.7 nm (53.1 km) NNW. Retrieved 2019/03/26 13:00 UTC (6 months ago):

RKPS 261300Z 04001KT CAVOK 08/M01 Q1019 RMK SLP204

TAF (pilot weather forecast)

Forecast is more than 12 hours old.

Closest forecast is Sacheon Air Base/Airport, 28.7 nm (53.1 km) NNW. Retrieved 2019/03/26 12:45 UTC (6 months ago):

TAF RKPS 261100Z 2612/2718 24006KT 9999 FEW040 SCT200 TN04/2622Z TX18/2706Z BECMG 2701/2702 24014KT BECMG 2711/2712 24006KT